createdAt,value
2018-12-29T00:00:29.709Z,-0.19
2018-12-29T00:02:55.616Z,-0.13
2018-12-29T00:05:21.373Z,-0.24
2018-12-29T00:07:47.326Z,-0.15
2018-12-29T00:10:13.203Z,-0.02
2018-12-29T00:12:39.023Z,-0.04
2018-12-29T00:15:04.882Z,0.02
2018-12-29T00:17:30.704Z,0.01
2018-12-29T00:19:56.529Z,-0.01
2018-12-29T00:22:22.392Z,0.03
2018-12-29T00:24:48.226Z,-0.05
2018-12-29T00:27:14.051Z,-0.11
2018-12-29T00:29:39.888Z,-0.18
2018-12-29T00:32:05.810Z,-0.22
2018-12-29T00:34:31.661Z,-0.28
2018-12-29T00:36:57.511Z,-0.30
2018-12-29T00:39:23.342Z,-0.31
2018-12-29T00:41:49.247Z,-0.35
2018-12-29T00:44:15.049Z,-0.31
2018-12-29T00:46:40.863Z,-0.34
2018-12-29T00:49:06.793Z,-0.32
2018-12-29T00:51:32.633Z,-0.31
2018-12-29T00:53:58.449Z,-0.30
2018-12-29T00:56:24.266Z,-0.26
2018-12-29T00:58:50.099Z,-0.27
2018-12-29T01:01:15.940Z,-0.24
2018-12-29T01:03:41.989Z,-0.20
2018-12-29T01:06:07.837Z,-0.19
2018-12-29T01:08:33.672Z,-0.25
2018-12-29T01:10:59.524Z,-0.24
2018-12-29T01:13:25.361Z,-0.26
2018-12-29T01:15:51.187Z,-0.21
2018-12-29T01:18:17.016Z,-0.14
2018-12-29T01:20:42.848Z,-0.20
2018-12-29T01:23:08.707Z,-0.13
2018-12-29T01:25:34.543Z,-0.25
2018-12-29T01:28:00.568Z,-0.26
2018-12-29T01:30:26.397Z,-0.30
2018-12-29T01:32:52.212Z,-0.38
2018-12-29T01:35:18.153Z,-0.28
2018-12-29T01:37:43.971Z,-0.05
2018-12-29T01:40:09.813Z,0.01
2018-12-29T01:42:35.620Z,0.02
2018-12-29T01:45:01.451Z,0.06
2018-12-29T01:47:27.295Z,0.05
2018-12-29T01:49:53.096Z,0.10
2018-12-29T01:52:18.943Z,0.05
2018-12-29T01:54:44.781Z,0.03
2018-12-29T01:57:10.604Z,0.11
2018-12-29T01:59:36.448Z,0.11
2018-12-29T02:02:02.584Z,0.08
2018-12-29T02:04:28.396Z,0.04
2018-12-29T02:06:54.234Z,-0.03
2018-12-29T02:09:20.070Z,0.03
2018-12-29T02:11:45.904Z,-0.03
2018-12-29T02:14:11.733Z,-0.02
2018-12-29T02:16:37.554Z,0.05
2018-12-29T02:19:03.376Z,0.03
2018-12-29T02:21:29.199Z,0.09
2018-12-29T02:23:55.043Z,0.06
2018-12-29T02:26:20.851Z,0.05
2018-12-29T02:28:46.793Z,-0.04
2018-12-29T02:31:12.597Z,-0.09
2018-12-29T02:33:38.497Z,-0.09
2018-12-29T02:36:04.301Z,-0.04
2018-12-29T02:38:30.161Z,-0.10
2018-12-29T02:40:55.997Z,-0.10
2018-12-29T02:43:21.829Z,-0.13
2018-12-29T02:45:47.674Z,-0.08
2018-12-29T02:48:13.501Z,-0.11
2018-12-29T02:50:39.332Z,-0.11
2018-12-29T02:53:05.145Z,-0.12
2018-12-29T02:55:30.982Z,-0.20
2018-12-29T02:57:56.887Z,-0.27
2018-12-29T03:00:22.702Z,-0.32
2018-12-29T03:02:48.528Z,-0.32
2018-12-29T03:05:14.366Z,-0.38
2018-12-29T03:07:40.181Z,-0.37
2018-12-29T03:10:06.007Z,-0.46
2018-12-29T03:12:31.833Z,-0.47
2018-12-29T03:14:57.751Z,-0.46
2018-12-29T03:17:23.570Z,-0.44
2018-12-29T03:19:49.403Z,-0.45
2018-12-29T03:22:15.263Z,-0.46
2018-12-29T03:24:41.223Z,-0.49
2018-12-29T03:27:07.162Z,-0.48
2018-12-29T03:29:32.972Z,-0.43
2018-12-29T03:31:58.907Z,-0.40
2018-12-29T03:34:24.709Z,-0.42
2018-12-29T03:36:50.545Z,-0.42
2018-12-29T03:39:16.375Z,-0.44
2018-12-29T03:41:42.411Z,-0.45
2018-12-29T03:44:08.237Z,-0.48
2018-12-29T03:46:34.076Z,-0.49
2018-12-29T03:48:59.912Z,-0.54
2018-12-29T03:51:25.740Z,-0.55
2018-12-29T03:53:51.637Z,-0.56
2018-12-29T03:56:17.459Z,-0.62
2018-12-29T03:58:43.290Z,-0.62
2018-12-29T04:01:09.178Z,-0.57
2018-12-29T04:03:35.030Z,-0.60
2018-12-29T04:06:00.945Z,-0.55
2018-12-29T04:08:26.769Z,-0.52
2018-12-29T04:10:52.607Z,-0.51
2018-12-29T04:13:18.422Z,-0.52
2018-12-29T04:15:44.251Z,-0.55
2018-12-29T04:18:10.086Z,-0.54
2018-12-29T04:20:36.009Z,-0.61
2018-12-29T04:23:01.958Z,-0.61
2018-12-29T04:25:27.841Z,-0.59
2018-12-29T04:27:53.660Z,-0.55
2018-12-29T04:30:19.473Z,-0.57
2018-12-29T04:32:45.303Z,-0.61
2018-12-29T04:35:11.125Z,-0.63
2018-12-29T04:37:36.941Z,-0.63
2018-12-29T04:40:03.575Z,-0.63
2018-12-29T04:42:29.380Z,-0.58
2018-12-29T04:44:55.189Z,-0.61
2018-12-29T04:47:21.005Z,-0.63
2018-12-29T04:49:46.831Z,-0.63
2018-12-29T04:52:12.656Z,-0.59
2018-12-29T04:54:38.476Z,-0.58
2018-12-29T04:57:04.311Z,-0.54
2018-12-29T04:59:30.132Z,-0.52
2018-12-29T05:01:55.938Z,-0.51
2018-12-29T05:04:21.775Z,-0.49
2018-12-29T05:06:47.606Z,-0.47
2018-12-29T05:09:13.421Z,-0.47
2018-12-29T05:11:39.245Z,-0.45
2018-12-29T05:14:05.117Z,-0.44
2018-12-29T05:16:31.019Z,-0.51
2018-12-29T05:18:56.942Z,-0.53
2018-12-29T05:21:22.780Z,-0.54
2018-12-29T05:23:48.603Z,-0.54
2018-12-29T05:26:14.443Z,-0.55
2018-12-29T05:28:40.267Z,-0.58
2018-12-29T05:31:06.088Z,-0.52
2018-12-29T05:33:31.935Z,-0.51
2018-12-29T05:35:57.741Z,-0.51
2018-12-29T05:38:23.690Z,-0.47
2018-12-29T05:40:49.521Z,-0.44
2018-12-29T05:43:15.367Z,-0.41
2018-12-29T05:45:41.186Z,-0.43
2018-12-29T05:48:07.011Z,-0.46
2018-12-29T05:50:32.830Z,-0.49
2018-12-29T05:52:58.760Z,-0.44
2018-12-29T05:55:24.605Z,-0.40
2018-12-29T05:57:50.435Z,-0.46
2018-12-29T06:00:16.277Z,-0.44
2018-12-29T06:02:42.129Z,-0.41
2018-12-29T06:05:07.975Z,-0.38
2018-12-29T06:07:33.779Z,-0.38
2018-12-29T06:09:59.600Z,-0.40
2018-12-29T06:12:25.438Z,-0.35
2018-12-29T06:14:51.273Z,-0.41
2018-12-29T06:17:17.114Z,-0.31
2018-12-29T06:19:42.951Z,-0.30
2018-12-29T06:22:08.783Z,-0.33
2018-12-29T06:24:34.608Z,-0.40
2018-12-29T06:27:00.452Z,-0.37
2018-12-29T06:29:26.278Z,-0.40
2018-12-29T06:31:52.202Z,-0.39
2018-12-29T06:34:18.017Z,-0.38
2018-12-29T06:36:43.853Z,-0.39
2018-12-29T06:39:09.755Z,-0.43
2018-12-29T06:41:35.565Z,-0.40
2018-12-29T06:44:01.486Z,-0.42
2018-12-29T06:46:27.317Z,-0.40
2018-12-29T06:48:53.255Z,-0.44
2018-12-29T06:51:19.184Z,-0.50
2018-12-29T06:53:45.018Z,-0.49
2018-12-29T06:56:11.245Z,-0.52
2018-12-29T06:58:37.233Z,-0.51
2018-12-29T07:01:03.071Z,-0.56
2018-12-29T07:03:29.000Z,-0.64
2018-12-29T07:05:54.821Z,-0.69
2018-12-29T07:08:20.662Z,-0.69
2018-12-29T07:10:46.592Z,-0.67
2018-12-29T07:13:12.502Z,-0.63
2018-12-29T07:15:38.451Z,-0.70
2018-12-29T07:18:04.358Z,-0.61
2018-12-29T07:20:30.297Z,-0.58
2018-12-29T07:22:56.119Z,-0.66
2018-12-29T07:25:21.998Z,-0.62
2018-12-29T07:27:47.805Z,-0.68
2018-12-29T07:30:13.616Z,-0.81
2018-12-29T07:32:39.504Z,-0.73
2018-12-29T07:35:05.315Z,-0.55
2018-12-29T07:37:31.169Z,-0.51
2018-12-29T07:39:57.026Z,-0.45
2018-12-29T07:42:22.977Z,-0.63
2018-12-29T07:44:48.906Z,-0.67
2018-12-29T07:47:14.844Z,-0.73
2018-12-29T07:49:40.651Z,-0.53
2018-12-29T07:52:06.483Z,-0.60
2018-12-29T07:54:32.304Z,-0.63
2018-12-29T07:56:58.149Z,-0.52
2018-12-29T07:59:24.075Z,-0.51
2018-12-29T08:01:49.996Z,-0.55
2018-12-29T08:04:15.938Z,-0.65
2018-12-29T08:06:41.816Z,-0.66
2018-12-29T08:09:07.638Z,-0.76
2018-12-29T08:11:33.446Z,-0.66
2018-12-29T08:13:59.290Z,-0.53
2018-12-29T08:16:25.128Z,-0.62
2018-12-29T08:18:50.957Z,-0.38
2018-12-29T08:21:16.783Z,-0.28
2018-12-29T08:23:42.621Z,-0.40
2018-12-29T08:26:08.549Z,-0.45
2018-12-29T08:28:34.397Z,-0.46
2018-12-29T08:31:00.311Z,-0.49
2018-12-29T08:33:26.161Z,-0.40
2018-12-29T08:35:51.980Z,-0.45
2018-12-29T08:38:17.854Z,-0.46
2018-12-29T08:40:43.669Z,-0.25
2018-12-29T08:43:09.485Z,-0.35
2018-12-29T08:45:35.321Z,-0.26
2018-12-29T08:48:01.135Z,-0.16
2018-12-29T08:50:26.952Z,-0.10
2018-12-29T08:52:52.762Z,-0.14
2018-12-29T08:55:18.614Z,-0.38
2018-12-29T08:57:44.426Z,-0.36
2018-12-29T09:00:11.209Z,-0.23
2018-12-29T09:02:37.086Z,-0.17
2018-12-29T09:05:03.114Z,-0.16
2018-12-29T09:07:28.946Z,-0.39
2018-12-29T09:09:55.168Z,-0.43
2018-12-29T09:12:21.022Z,-0.38
2018-12-29T09:14:46.874Z,-0.20
2018-12-29T09:17:12.730Z,-0.33
2018-12-29T09:19:38.570Z,-0.38
2018-12-29T09:22:04.514Z,-0.35
2018-12-29T09:24:30.346Z,-0.23
2018-12-29T09:26:56.247Z,0.00
2018-12-29T09:29:22.218Z,-0.04
2018-12-29T09:31:48.053Z,0.14
2018-12-29T09:34:13.864Z,0.18
2018-12-29T09:36:39.689Z,-1.72
2018-12-29T09:39:06.127Z,0.11
2018-12-29T09:41:31.966Z,0.24
2018-12-29T09:43:57.790Z,0.06
2018-12-29T09:46:23.617Z,0.13
2018-12-29T09:48:49.452Z,0.32
2018-12-29T09:51:15.270Z,0.37
2018-12-29T09:53:41.128Z,0.35
2018-12-29T09:56:06.977Z,0.35
2018-12-29T09:58:32.824Z,0.27
2018-12-29T10:00:58.752Z,0.28
2018-12-29T10:03:24.616Z,0.37
2018-12-29T10:05:50.452Z,0.28
2018-12-29T10:08:16.277Z,0.03
2018-12-29T10:10:42.101Z,0.26
2018-12-29T10:13:07.951Z,0.24
2018-12-29T10:15:33.779Z,0.28
2018-12-29T10:17:59.638Z,0.29
2018-12-29T10:20:25.477Z,0.31
2018-12-29T10:22:51.287Z,0.24
2018-12-29T10:25:17.121Z,0.27
2018-12-29T10:27:42.975Z,0.30
2018-12-29T10:30:09.277Z,0.40
2018-12-29T10:32:35.109Z,0.38
2018-12-29T10:35:00.952Z,0.31
2018-12-29T10:37:26.757Z,0.13
2018-12-29T10:39:52.609Z,0.34
2018-12-29T10:42:18.423Z,0.37
2018-12-29T10:44:44.259Z,0.30
2018-12-29T10:47:10.070Z,0.38
2018-12-29T10:49:35.926Z,0.39
2018-12-29T10:52:01.753Z,0.59
2018-12-29T10:54:27.573Z,0.60
2018-12-29T10:56:53.514Z,0.63
2018-12-29T10:59:19.324Z,0.68
2018-12-29T11:01:45.157Z,0.58
2018-12-29T11:04:11.026Z,0.54
2018-12-29T11:06:36.895Z,0.70
2018-12-29T11:09:04.833Z,0.81
2018-12-29T11:11:30.672Z,0.85
2018-12-29T11:13:56.498Z,0.71
2018-12-29T11:16:22.538Z,0.64
2018-12-29T11:18:48.551Z,0.68
2018-12-29T11:21:14.411Z,0.43
2018-12-29T11:23:40.230Z,0.27
2018-12-29T11:26:06.066Z,0.41
2018-12-29T11:28:32.143Z,0.55
2018-12-29T11:30:57.945Z,0.62
2018-12-29T11:33:23.914Z,0.70
2018-12-29T11:35:49.746Z,0.74
2018-12-29T11:38:15.591Z,0.72
2018-12-29T11:40:41.410Z,0.69
2018-12-29T11:43:07.222Z,0.73
2018-12-29T11:45:33.099Z,0.64
2018-12-29T11:47:58.943Z,0.62
2018-12-29T11:50:24.796Z,0.61
2018-12-29T11:52:50.643Z,0.63
2018-12-29T11:55:16.501Z,0.50
2018-12-29T11:57:42.702Z,0.52
2018-12-29T12:00:08.592Z,0.64
2018-12-29T12:02:34.415Z,0.63
2018-12-29T12:05:00.260Z,0.64
2018-12-29T12:07:26.125Z,0.59
2018-12-29T12:09:51.974Z,0.65
2018-12-29T12:12:17.879Z,0.65
2018-12-29T12:14:43.818Z,0.59
2018-12-29T12:17:09.646Z,0.66
2018-12-29T12:19:35.585Z,0.79
2018-12-29T12:22:01.661Z,0.75
2018-12-29T12:24:27.493Z,0.75
2018-12-29T12:26:53.335Z,0.73
2018-12-29T12:29:19.155Z,0.68
2018-12-29T12:31:45.008Z,0.68
2018-12-29T12:34:10.940Z,0.68
2018-12-29T12:36:37.173Z,0.57
2018-12-29T12:39:05.104Z,0.75
2018-12-29T12:41:31.158Z,0.74
2018-12-29T12:43:57.394Z,0.73
2018-12-29T12:46:23.217Z,0.70
2018-12-29T12:48:49.359Z,0.68
2018-12-29T12:51:15.203Z,0.74
2018-12-29T12:53:41.048Z,0.21
2018-12-29T12:56:06.884Z,0.73
2018-12-29T12:58:32.810Z,0.74
2018-12-29T13:00:58.944Z,0.74
2018-12-29T13:03:25.176Z,0.74
2018-12-29T13:05:50.992Z,0.80
2018-12-29T13:08:16.823Z,0.82
2018-12-29T13:10:42.642Z,0.82
2018-12-29T13:13:08.484Z,0.81
2018-12-29T13:15:34.340Z,0.77
2018-12-29T13:18:01.311Z,0.77
2018-12-29T13:20:27.353Z,0.75
2018-12-29T13:22:53.162Z,0.73
2018-12-29T13:25:19.012Z,0.80
2018-12-29T13:27:44.827Z,0.82
2018-12-29T13:30:10.654Z,0.74
2018-12-29T13:32:36.490Z,0.71
2018-12-29T13:35:03.249Z,0.70
2018-12-29T13:37:29.168Z,0.61
2018-12-29T13:39:54.992Z,0.68
2018-12-29T13:42:20.842Z,0.63
2018-12-29T13:44:46.668Z,0.54
2018-12-29T13:47:12.518Z,0.51
2018-12-29T13:49:38.631Z,0.57
2018-12-29T13:52:04.458Z,0.55
2018-12-29T13:54:30.295Z,0.54
2018-12-29T13:56:56.143Z,0.63
2018-12-29T13:59:21.969Z,0.58
2018-12-29T14:01:47.807Z,0.61
2018-12-29T14:04:13.933Z,0.64
2018-12-29T14:06:39.751Z,0.71
2018-12-29T14:09:05.672Z,0.70
2018-12-29T14:11:31.518Z,0.69
2018-12-29T14:13:57.336Z,0.66
2018-12-29T14:16:23.154Z,0.67
2018-12-29T14:18:49.291Z,0.67
2018-12-29T14:21:15.118Z,0.68
2018-12-29T14:23:40.967Z,0.68
2018-12-29T14:26:06.813Z,0.63
2018-12-29T14:28:32.663Z,0.65
2018-12-29T14:30:58.475Z,0.61
2018-12-29T14:33:24.425Z,0.64
2018-12-29T14:35:50.260Z,0.61
2018-12-29T14:38:16.058Z,0.56
2018-12-29T14:40:41.991Z,0.60
2018-12-29T14:43:07.822Z,0.56
2018-12-29T14:45:33.642Z,0.58
2018-12-29T14:47:59.491Z,0.61
2018-12-29T14:50:25.340Z,0.58
2018-12-29T14:52:51.195Z,0.65
2018-12-29T14:55:17.033Z,0.66
2018-12-29T14:57:42.865Z,0.71
2018-12-29T15:00:08.882Z,0.73
2018-12-29T15:02:34.704Z,0.71
2018-12-29T15:05:00.559Z,0.75
2018-12-29T15:07:26.441Z,0.75
2018-12-29T15:09:52.299Z,0.75
2018-12-29T15:12:18.253Z,0.76
2018-12-29T15:14:44.103Z,0.74
2018-12-29T15:17:09.989Z,0.75
2018-12-29T15:19:35.836Z,0.75
2018-12-29T15:22:01.707Z,0.77
2018-12-29T15:24:27.579Z,0.75
2018-12-29T15:26:53.521Z,0.75
2018-12-29T15:29:19.801Z,0.75
2018-12-29T15:31:45.754Z,0.76
2018-12-29T15:34:11.614Z,0.76
2018-12-29T15:36:37.962Z,0.77
2018-12-29T15:39:05.096Z,0.68
2018-12-29T15:41:30.996Z,0.76
2018-12-29T15:43:57.325Z,0.77
2018-12-29T15:46:23.185Z,0.83
2018-12-29T15:48:51.150Z,0.81
2018-12-29T15:51:16.800Z,0.85
2018-12-29T15:53:42.646Z,0.86
2018-12-29T15:56:08.465Z,0.88
2018-12-29T15:58:34.299Z,0.90
2018-12-29T16:01:00.119Z,0.88
2018-12-29T16:03:25.971Z,-0.03
2018-12-29T16:05:52.314Z,0.89
2018-12-29T16:08:18.420Z,0.85
2018-12-29T16:10:44.271Z,0.84
2018-12-29T16:13:10.127Z,0.85
2018-12-29T16:15:36.002Z,0.85
2018-12-29T16:18:01.828Z,0.86
2018-12-29T16:20:27.696Z,0.84
2018-12-29T16:22:53.945Z,0.86
2018-12-29T16:25:20.184Z,0.84
2018-12-29T16:27:46.039Z,0.85
2018-12-29T16:30:11.868Z,0.86
2018-12-29T16:32:37.718Z,0.91
2018-12-29T16:35:03.724Z,0.90
2018-12-29T16:37:29.583Z,0.87
2018-12-29T16:39:55.436Z,0.90
2018-12-29T16:42:21.600Z,0.86
2018-12-29T16:44:47.450Z,0.86
2018-12-29T16:47:13.353Z,0.87
2018-12-29T16:49:39.225Z,0.86
2018-12-29T16:52:05.115Z,0.88
2018-12-29T16:54:30.977Z,0.86
2018-12-29T16:56:56.832Z,0.84
2018-12-29T16:59:23.080Z,0.85
2018-12-29T17:01:49.010Z,0.85
2018-12-29T17:04:15.226Z,0.85
2018-12-29T17:06:41.561Z,0.86
2018-12-29T17:09:07.625Z,0.86
2018-12-29T17:11:33.488Z,0.86
2018-12-29T17:13:59.324Z,0.85
2018-12-29T17:16:25.162Z,0.84
2018-12-29T17:18:50.992Z,0.84
2018-12-29T17:21:16.916Z,0.82
2018-12-29T17:23:42.787Z,0.90
2018-12-29T17:26:08.725Z,0.87
2018-12-29T17:28:34.553Z,0.89
2018-12-29T17:31:00.433Z,0.89
2018-12-29T17:33:26.334Z,0.92
2018-12-29T17:35:52.217Z,0.92
2018-12-29T17:38:18.492Z,0.93
2018-12-29T17:40:44.334Z,0.96
2018-12-29T17:43:10.215Z,0.92
2018-12-29T17:45:36.067Z,0.94
2018-12-29T17:48:01.930Z,0.94
2018-12-29T17:50:28.165Z,0.97
2018-12-29T17:52:54.012Z,0.95
2018-12-29T17:55:20.424Z,1.01
2018-12-29T17:57:46.561Z,0.41
2018-12-29T18:00:12.403Z,1.03
2018-12-29T18:02:38.541Z,1.02
2018-12-29T18:05:04.720Z,0.98
2018-12-29T18:07:30.612Z,1.02
2018-12-29T18:09:57.364Z,1.03
2018-12-29T18:12:23.373Z,1.02
2018-12-29T18:14:49.488Z,1.05
2018-12-29T18:17:15.311Z,1.07
2018-12-29T18:19:41.237Z,1.10
2018-12-29T18:22:07.245Z,1.11
2018-12-29T18:24:33.091Z,1.13
2018-12-29T18:26:58.920Z,1.15
2018-12-29T18:29:24.757Z,1.15
2018-12-29T18:31:50.981Z,1.17
2018-12-29T18:34:16.859Z,1.17
2018-12-29T18:36:42.695Z,1.19
2018-12-29T18:39:08.510Z,1.19
2018-12-29T18:41:34.343Z,1.23
2018-12-29T18:44:00.457Z,1.26
2018-12-29T18:46:26.286Z,1.22
2018-12-29T18:48:52.202Z,1.26
2018-12-29T18:51:18.041Z,1.29
2018-12-29T18:53:44.247Z,1.31
2018-12-29T18:56:10.130Z,1.33
2018-12-29T18:58:36.047Z,1.32
2018-12-29T19:01:01.944Z,1.31
2018-12-29T19:03:27.763Z,1.30
2018-12-29T19:05:53.883Z,1.34
2018-12-29T19:08:19.731Z,1.32
2018-12-29T19:10:45.539Z,1.25
2018-12-29T19:13:11.948Z,1.34
2018-12-29T19:15:38.053Z,1.36
2018-12-29T19:18:03.891Z,1.35
2018-12-29T19:20:30.221Z,1.34
2018-12-29T19:22:56.151Z,1.36
2018-12-29T19:25:22.105Z,1.36
2018-12-29T19:27:48.035Z,1.40
2018-12-29T19:30:14.274Z,1.41
2018-12-29T19:32:40.249Z,1.36
2018-12-29T19:35:06.247Z,1.39
2018-12-29T19:37:32.063Z,1.35
2018-12-29T19:39:57.921Z,1.37
2018-12-29T19:42:23.762Z,1.39
2018-12-29T19:44:49.685Z,1.39
2018-12-29T19:47:15.595Z,1.38
2018-12-29T19:49:41.530Z,1.41
2018-12-29T19:52:07.397Z,1.43
2018-12-29T19:54:33.251Z,1.37
2018-12-29T19:56:59.478Z,1.40
2018-12-29T19:59:25.540Z,1.36
2018-12-29T20:01:51.393Z,1.34
2018-12-29T20:04:17.826Z,1.34
2018-12-29T20:06:43.665Z,1.41
2018-12-29T20:09:09.495Z,1.47
2018-12-29T20:11:35.448Z,1.45
2018-12-29T20:14:01.249Z,1.48
2018-12-29T20:16:27.474Z,1.45
2018-12-29T20:18:53.418Z,1.48
2018-12-29T20:21:19.261Z,1.51
2018-12-29T20:23:45.076Z,1.51
2018-12-29T20:26:10.931Z,1.56
2018-12-29T20:28:36.772Z,1.56
2018-12-29T20:31:02.727Z,1.56
2018-12-29T20:33:28.553Z,1.51
2018-12-29T20:35:54.390Z,1.38
2018-12-29T20:38:20.216Z,1.25
2018-12-29T20:40:46.063Z,1.11
2018-12-29T20:43:12.475Z,1.03
2018-12-29T20:45:38.303Z,1.06
2018-12-29T20:48:04.523Z,1.05
2018-12-29T20:50:30.341Z,1.03
2018-12-29T20:52:56.180Z,1.05
2018-12-29T20:55:22.002Z,1.06
2018-12-29T20:57:47.881Z,1.08
2018-12-29T21:00:13.747Z,1.04
2018-12-29T21:02:39.598Z,1.03
2018-12-29T21:05:05.867Z,1.05
2018-12-29T21:07:31.726Z,1.10
2018-12-29T21:09:57.534Z,1.07
2018-12-29T21:12:23.472Z,0.92
2018-12-29T21:14:49.331Z,1.16
2018-12-29T21:17:15.165Z,1.06
2018-12-29T21:19:41.036Z,1.08
2018-12-29T21:22:07.548Z,1.04
2018-12-29T21:24:33.557Z,0.94
2018-12-29T21:26:59.383Z,1.03
2018-12-29T21:29:25.245Z,0.99
2018-12-29T21:31:51.157Z,1.08
2018-12-29T21:34:17.184Z,1.09
2018-12-29T21:36:43.035Z,1.05
2018-12-29T21:39:08.873Z,0.98
2018-12-29T21:41:34.731Z,1.03
2018-12-29T21:44:00.587Z,1.02
2018-12-29T21:46:26.435Z,1.05
2018-12-29T21:48:52.317Z,1.01
2018-12-29T21:51:18.249Z,1.05
2018-12-29T21:53:44.484Z,1.02
2018-12-29T21:56:10.304Z,1.04
2018-12-29T21:58:36.293Z,1.10
2018-12-29T22:01:02.117Z,1.08
2018-12-29T22:03:28.071Z,0.93
2018-12-29T22:05:53.888Z,1.00
2018-12-29T22:08:19.742Z,1.08
2018-12-29T22:10:45.678Z,1.10
2018-12-29T22:13:11.513Z,1.11
2018-12-29T22:15:37.763Z,1.12
2018-12-29T22:18:03.588Z,1.13
2018-12-29T22:20:33.253Z,1.15
2018-12-29T22:22:57.230Z,1.14
2018-12-29T22:25:23.072Z,1.15
2018-12-29T22:27:48.877Z,1.07
2018-12-29T22:30:14.843Z,1.10
2018-12-29T22:32:40.872Z,1.06
2018-12-29T22:35:06.831Z,0.94
2018-12-29T22:37:32.757Z,0.95
2018-12-29T22:39:58.606Z,0.96
2018-12-29T22:42:24.437Z,0.93
2018-12-29T22:44:50.274Z,0.96
2018-12-29T22:47:16.126Z,0.89
2018-12-29T22:49:41.988Z,0.79
2018-12-29T22:52:07.858Z,0.76
2018-12-29T22:54:33.801Z,0.74
2018-12-29T22:56:59.662Z,0.79
2018-12-29T22:59:25.511Z,0.82
2018-12-29T23:01:51.354Z,0.85
2018-12-29T23:04:17.199Z,0.78
2018-12-29T23:06:43.138Z,1.00
2018-12-29T23:09:09.162Z,0.93
2018-12-29T23:11:35.029Z,0.94
2018-12-29T23:14:00.943Z,0.91
2018-12-29T23:16:26.820Z,0.81
2018-12-29T23:18:52.978Z,0.97
2018-12-29T23:21:18.828Z,0.84
2018-12-29T23:23:44.655Z,0.76
2018-12-29T23:26:10.495Z,0.92
2018-12-29T23:28:36.351Z,0.83
2018-12-29T23:31:02.569Z,0.81
2018-12-29T23:33:28.592Z,0.79
2018-12-29T23:35:54.448Z,0.84
2018-12-29T23:38:20.411Z,0.83
2018-12-29T23:40:46.239Z,0.96
2018-12-29T23:43:12.192Z,1.16
2018-12-29T23:45:38.252Z,1.32
2018-12-29T23:48:04.153Z,1.42
2018-12-29T23:50:29.974Z,1.44
2018-12-29T23:52:56.222Z,1.44
2018-12-29T23:55:22.354Z,1.43
2018-12-29T23:57:48.186Z,1.42
